Overton RPC :: 150A - ONLY, TN

liberation: 2020-10-03  07:30     latitude: 35.871380     longitude: -87.706677 42 birds
# LOFT PRING MILES ARRIVAL SPEED ToWin
1 LET IT GO LOFT IF20-ORP-0112 162.717 2020-10-03 11:34:33.461 1171.019 00:00:00
2 VALHALLA LOFTS IF20-VALH-0085 139.784 2020-10-03 11:06:02.928 1138.726 00:05:57
3 VALHALLA LOFTS IF20-ORP-0021 139.784 2020-10-03 11:06:30.158 1136.339 00:06:25
4 VALHALLA LOFTS IF20-VALH-0038 139.784 2020-10-03 11:06:47.464 1134.828 00:06:42
5 VALHALLA LOFTS IF20-VALH-0089 139.784 2020-10-03 11:06:53.900 1134.266 00:06:48
6 VALHALLA LOFTS IF20-VALH-0045 139.784 2020-10-03 11:07:37.199 1130.505 00:07:32
7 VALHALLA LOFTS IF20-VALH-0095 139.784 2020-10-03 11:08:30.790 1125.884 00:08:25
8 VALHALLA LOFTS IF20-VALH-0066 139.784 2020-10-03 11:15:02.983 1093.183 00:14:58
9 VALHALLA LOFTS IF20-VALH-0087 139.784 2020-10-03 11:15:05.918 1092.945 00:15:00
10 VALHALLA LOFTS IF20-VALH-0077 139.784 2020-10-03 11:15:07.174 1092.844 00:15:02
11 VALHALLA LOFTS IF20-VALH-0020 139.784 2020-10-03 11:15:11.250 1092.514 00:15:06
12 VALHALLA LOFTS IF20-ORP-0022 139.784 2020-10-03 11:15:18.539 1091.925 00:15:13
13 VALHALLA LOFTS IF20-VALH-0100 139.784 2020-10-03 11:15:26.862 1091.253 00:15:21
14 LET IT GO LOFT IF20-VALH-0092 162.717 2020-10-03 11:52:35.388 1090.605 00:18:02
15 VALHALLA LOFTS IF20-VALH-0097 139.784 2020-10-03 11:15:54.040 1089.065 00:15:49
16 VALHALLA LOFTS IF20-VALH-0010 139.784 2020-10-03 11:21:16.915 1063.725 00:21:11
17 VALHALLA LOFTS IF20-VALH-0096 139.784 2020-10-03 11:23:04.112 1055.571 00:22:59
18 VALHALLA LOFTS IF20-VALH-0027 139.784 2020-10-03 11:23:04.588 1055.535 00:22:59
19 VALHALLA LOFTS IF20-VALH-0025 139.784 2020-10-03 11:23:35.114 1053.236 00:23:30
20 VALHALLA LOFTS IF20-VALH-0039 139.784 2020-10-03 11:27:49.363 1034.470 00:27:44
21 VALHALLA LOFTS IF20-VALH-0019 139.784 2020-10-03 11:33:18.530 1011.145 00:33:13
22 VALHALLA LOFTS IF20-VALH-0088 139.784 2020-10-03 11:39:21.643 986.605 00:39:16
23 VALHALLA LOFTS IF20-VALH-0042 139.784 2020-10-03 11:39:24.585 986.411 00:39:19
24 VALHALLA LOFTS IF20-VALH-0094 139.784 2020-10-03 11:49:54.302 946.578 00:49:49
25 LET IT GO LOFT IF20-ORP-0126 162.717 2020-10-03 12:34:13.886 941.328 00:59:40
26 VALHALLA LOFTS IF20-VALH-0009 139.784 2020-10-03 12:02:37.792 902.397 01:02:32
27 VALHALLA LOFTS IF20-VALH-0098 139.784 2020-10-03 13:07:15.878 729.458 02:07:10
28 LET IT GO LOFT IF20-ORP-0106 162.717 2020-10-03 15:37:39.821 587.252 04:03:06
29 VALHALLA LOFTS IF20-VALH-0024 139.784 2020-10-03 15:29:05.864 513.508 04:29:00
LET IT GO LOFT IF20-ORP-0120 0 0000-00-00 00:00:00.000 0.000 00:00:00
LET IT GO LOFT IF20-ORP-0122 0 0000-00-00 00:00:00.000 0.000 00:00:00
LET IT GO LOFT IF20-ORP-0128 0 0000-00-00 00:00:00.000 0.000 00:00:00
LET IT GO LOFT IF20-ORP-0129 0 0000-00-00 00:00:00.000 0.000 00:00:00
LET IT GO LOFT IF20-ORP-0131 0 0000-00-00 00:00:00.000 0.000 00:00:00
LET IT GO LOFT IF20-ORP-0141 0 0000-00-00 00:00:00.000 0.000 00:00:00
VALHALLA LOFTS IF20-ORP-0020 0 0000-00-00 00:00:00.000 0.000 00:00:00
VALHALLA LOFTS IF20-VALH-0001 0 0000-00-00 00:00:00.000 0.000 00:00:00
VALHALLA LOFTS IF20-VALH-0012 0 0000-00-00 00:00:00.000 0.000 00:00:00
VALHALLA LOFTS IF20-VALH-0017 0 0000-00-00 00:00:00.000 0.000 00:00:00
VALHALLA LOFTS IF20-VALH-0023 0 0000-00-00 00:00:00.000 0.000 00:00:00
VALHALLA LOFTS IF20-VALH-0051 0 0000-00-00 00:00:00.000 0.000 00:00:00
VALHALLA LOFTS IF20-VALH-0060 0 0000-00-00 00:00:00.000 0.000 00:00:00